sensor_id;sensor_type;location;lat;lon;timestamp;P1;durP1;ratioP1;P2;durP2;ratioP2
3299;SDS011;1662;49.310;8.134;2023-04-15T00:01:18;5.47;;;5.10;;
3299;SDS011;1662;49.310;8.134;2023-04-15T00:03:44;5.20;;;4.70;;
3299;SDS011;1662;49.310;8.134;2023-04-15T00:06:11;6.07;;;4.40;;
3299;SDS011;1662;49.310;8.134;2023-04-15T00:08:37;6.20;;;4.70;;
3299;SDS011;1662;49.310;8.134;2023-04-15T00:11:03;5.63;;;5.13;;
3299;SDS011;1662;49.310;8.134;2023-04-15T00:13:30;5.07;;;4.67;;
3299;SDS011;1662;49.310;8.134;2023-04-15T00:15:56;4.27;;;4.10;;
3299;SDS011;1662;49.310;8.134;2023-04-15T00:18:22;8.07;;;4.37;;
3299;SDS011;1662;49.310;8.134;2023-04-15T00:20:48;6.00;;;4.30;;
3299;SDS011;1662;49.310;8.134;2023-04-15T00:23:14;4.70;;;4.40;;
3299;SDS011;1662;49.310;8.134;2023-04-15T00:25:40;4.57;;;4.23;;
3299;SDS011;1662;49.310;8.134;2023-04-15T00:28:05;5.20;;;4.80;;
3299;SDS011;1662;49.310;8.134;2023-04-15T00:30:31;5.03;;;4.40;;
3299;SDS011;1662;49.310;8.134;2023-04-15T00:32:57;4.30;;;4.00;;
3299;SDS011;1662;49.310;8.134;2023-04-15T00:35:23;4.53;;;4.33;;
3299;SDS011;1662;49.310;8.134;2023-04-15T00:37:48;4.30;;;4.10;;
3299;SDS011;1662;49.310;8.134;2023-04-15T00:40:14;4.60;;;4.30;;
3299;SDS011;1662;49.310;8.134;2023-04-15T00:42:42;3.83;;;3.60;;
3299;SDS011;1662;49.310;8.134;2023-04-15T00:45:09;5.73;;;4.23;;
3299;SDS011;1662;49.310;8.134;2023-04-15T00:47:35;4.30;;;4.00;;
3299;SDS011;1662;49.310;8.134;2023-04-15T00:50:03;4.67;;;4.37;;
3299;SDS011;1662;49.310;8.134;2023-04-15T00:52:29;4.67;;;3.80;;
3299;SDS011;1662;49.310;8.134;2023-04-15T00:54:55;4.13;;;3.83;;
3299;SDS011;1662;49.310;8.134;2023-04-15T00:57:20;4.10;;;3.90;;
3299;SDS011;1662;49.310;8.134;2023-04-15T00:59:46;4.17;;;3.80;;
3299;SDS011;1662;49.310;8.134;2023-04-15T01:02:12;4.27;;;3.97;;
3299;SDS011;1662;49.310;8.134;2023-04-15T01:04:39;4.27;;;3.97;;
3299;SDS011;1662;49.310;8.134;2023-04-15T01:07:05;5.33;;;4.33;;
3299;SDS011;1662;49.310;8.134;2023-04-15T01:09:31;4.10;;;3.80;;
3299;SDS011;1662;49.310;8.134;2023-04-15T01:11:57;7.50;;;4.73;;
3299;SDS011;1662;49.310;8.134;2023-04-15T01:14:23;4.03;;;3.80;;
3299;SDS011;1662;49.310;8.134;2023-04-15T01:16:49;5.40;;;4.40;;
3299;SDS011;1662;49.310;8.134;2023-04-15T01:19:16;4.03;;;3.73;;
3299;SDS011;1662;49.310;8.134;2023-04-15T01:21:43;4.20;;;3.50;;
3299;SDS011;1662;49.310;8.134;2023-04-15T01:24:09;6.60;;;4.10;;
3299;SDS011;1662;49.310;8.134;2023-04-15T01:26:36;4.90;;;4.57;;
3299;SDS011;1662;49.310;8.134;2023-04-15T01:29:03;5.93;;;3.70;;
3299;SDS011;1662;49.310;8.134;2023-04-15T01:31:28;3.40;;;3.20;;
3299;SDS011;1662;49.310;8.134;2023-04-15T01:33:54;3.70;;;3.40;;
3299;SDS011;1662;49.310;8.134;2023-04-15T01:36:20;3.57;;;3.37;;
3299;SDS011;1662;49.310;8.134;2023-04-15T01:38:46;3.70;;;3.43;;
3299;SDS011;1662;49.310;8.134;2023-04-15T01:41:12;4.00;;;3.70;;
3299;SDS011;1662;49.310;8.134;2023-04-15T01:43:38;4.03;;;3.70;;
3299;SDS011;1662;49.310;8.134;2023-04-15T01:46:04;3.67;;;3.37;;
3299;SDS011;1662;49.310;8.134;2023-04-15T01:48:30;3.30;;;3.20;;
3299;SDS011;1662;49.310;8.134;2023-04-15T01:50:56;4.50;;;3.40;;
3299;SDS011;1662;49.310;8.134;2023-04-15T01:53:25;3.70;;;3.40;;
3299;SDS011;1662;49.310;8.134;2023-04-15T01:55:51;4.00;;;3.10;;
3299;SDS011;1662;49.310;8.134;2023-04-15T01:58:17;4.10;;;3.53;;
3299;SDS011;1662;49.310;8.134;2023-04-15T02:00:43;6.47;;;3.67;;
3299;SDS011;1662;49.310;8.134;2023-04-15T02:03:09;4.27;;;3.33;;
3299;SDS011;1662;49.310;8.134;2023-04-15T02:05:37;6.57;;;3.60;;
3299;SDS011;1662;49.310;8.134;2023-04-15T02:08:02;5.27;;;3.57;;
3299;SDS011;1662;49.310;8.134;2023-04-15T02:10:28;4.43;;;4.03;;
3299;SDS011;1662;49.310;8.134;2023-04-15T02:12:54;5.90;;;3.70;;
3299;SDS011;1662;49.310;8.134;2023-04-15T02:15:19;5.10;;;3.63;;
3299;SDS011;1662;49.310;8.134;2023-04-15T02:17:47;6.10;;;3.53;;
3299;SDS011;1662;49.310;8.134;2023-04-15T02:20:15;3.17;;;2.93;;
3299;SDS011;1662;49.310;8.134;2023-04-15T02:22:42;3.97;;;3.67;;
3299;SDS011;1662;49.310;8.134;2023-04-15T02:25:07;4.27;;;3.57;;
3299;SDS011;1662;49.310;8.134;2023-04-15T02:27:34;3.13;;;2.90;;
3299;SDS011;1662;49.310;8.134;2023-04-15T02:30:00;2.73;;;2.63;;
3299;SDS011;1662;49.310;8.134;2023-04-15T02:32:26;3.60;;;3.00;;
3299;SDS011;1662;49.310;8.134;2023-04-15T02:34:53;6.27;;;3.20;;
3299;SDS011;1662;49.310;8.134;2023-04-15T02:37:21;7.23;;;3.70;;
3299;SDS011;1662;49.310;8.134;2023-04-15T02:39:47;3.30;;;3.07;;
3299;SDS011;1662;49.310;8.134;2023-04-15T02:42:12;6.70;;;3.73;;
3299;SDS011;1662;49.310;8.134;2023-04-15T02:44:38;3.97;;;3.67;;
3299;SDS011;1662;49.310;8.134;2023-04-15T02:47:03;4.67;;;3.20;;
3299;SDS011;1662;49.310;8.134;2023-04-15T02:49:31;4.03;;;3.67;;
3299;SDS011;1662;49.310;8.134;2023-04-15T02:51:56;5.07;;;2.83;;
3299;SDS011;1662;49.310;8.134;2023-04-15T02:54:25;3.40;;;3.10;;
3299;SDS011;1662;49.310;8.134;2023-04-15T02:56:52;3.10;;;2.90;;
3299;SDS011;1662;49.310;8.134;2023-04-15T02:59:20;3.70;;;3.50;;
3299;SDS011;1662;49.310;8.134;2023-04-15T03:01:45;3.50;;;3.30;;
3299;SDS011;1662;49.310;8.134;2023-04-15T03:04:11;4.53;;;3.20;;
3299;SDS011;1662;49.310;8.134;2023-04-15T03:06:37;3.70;;;3.28;;
3299;SDS011;1662;49.310;8.134;2023-04-15T03:09:03;4.77;;;3.03;;
3299;SDS011;1662;49.310;8.134;2023-04-15T03:11:29;3.33;;;3.03;;
3299;SDS011;1662;49.310;8.134;2023-04-15T03:13:55;5.50;;;3.20;;
3299;SDS011;1662;49.310;8.134;2023-04-15T03:16:21;3.70;;;3.50;;
3299;SDS011;1662;49.310;8.134;2023-04-15T03:18:47;3.50;;;3.00;;
3299;SDS011;1662;49.310;8.134;2023-04-15T03:21:14;3.53;;;3.00;;
3299;SDS011;1662;49.310;8.134;2023-04-15T03:23:40;6.63;;;3.90;;
3299;SDS011;1662;49.310;8.134;2023-04-15T03:26:06;4.00;;;3.37;;
3299;SDS011;1662;49.310;8.134;2023-04-15T03:28:31;3.80;;;3.57;;
3299;SDS011;1662;49.310;8.134;2023-04-15T03:30:57;3.30;;;3.10;;
3299;SDS011;1662;49.310;8.134;2023-04-15T03:33:23;4.90;;;3.40;;
3299;SDS011;1662;49.310;8.134;2023-04-15T03:35:49;3.43;;;2.90;;
3299;SDS011;1662;49.310;8.134;2023-04-15T03:38:16;2.87;;;2.77;;
3299;SDS011;1662;49.310;8.134;2023-04-15T03:40:42;3.00;;;2.80;;
3299;SDS011;1662;49.310;8.134;2023-04-15T03:43:10;5.07;;;3.25;;
3299;SDS011;1662;49.310;8.134;2023-04-15T03:45:36;4.17;;;3.17;;
3299;SDS011;1662;49.310;8.134;2023-04-15T03:48:01;3.60;;;3.30;;
3299;SDS011;1662;49.310;8.134;2023-04-15T03:50:30;3.70;;;3.40;;
3299;SDS011;1662;49.310;8.134;2023-04-15T03:52:56;3.50;;;3.07;;
3299;SDS011;1662;49.310;8.134;2023-04-15T03:55:21;3.30;;;3.10;;
3299;SDS011;1662;49.310;8.134;2023-04-15T03:57:47;4.87;;;2.77;;
3299;SDS011;1662;49.310;8.134;2023-04-15T04:00:12;3.43;;;3.10;;
3299;SDS011;1662;49.310;8.134;2023-04-15T04:02:38;4.77;;;3.00;;
3299;SDS011;1662;49.310;8.134;2023-04-15T04:05:03;3.37;;;3.17;;
3299;SDS011;1662;49.310;8.134;2023-04-15T04:07:29;3.40;;;2.87;;
3299;SDS011;1662;49.310;8.134;2023-04-15T04:09:57;2.65;;;2.55;;
3299;SDS011;1662;49.310;8.134;2023-04-15T04:12:23;6.07;;;3.20;;
3299;SDS011;1662;49.310;8.134;2023-04-15T04:14:48;2.90;;;2.80;;
3299;SDS011;1662;49.310;8.134;2023-04-15T04:17:14;3.37;;;3.07;;
3299;SDS011;1662;49.310;8.134;2023-04-15T04:19:40;4.03;;;3.10;;
3299;SDS011;1662;49.310;8.134;2023-04-15T04:22:05;7.50;;;3.60;;
3299;SDS011;1662;49.310;8.134;2023-04-15T04:24:31;3.10;;;2.90;;
3299;SDS011;1662;49.310;8.134;2023-04-15T04:26:57;5.73;;;3.60;;
3299;SDS011;1662;49.310;8.134;2023-04-15T04:29:22;6.00;;;3.53;;
3299;SDS011;1662;49.310;8.134;2023-04-15T04:31:48;4.90;;;3.60;;
3299;SDS011;1662;49.310;8.134;2023-04-15T04:34:14;4.60;;;3.40;;
3299;SDS011;1662;49.310;8.134;2023-04-15T04:36:40;4.88;;;3.58;;
3299;SDS011;1662;49.310;8.134;2023-04-15T04:39:06;7.00;;;3.13;;
3299;SDS011;1662;49.310;8.134;2023-04-15T04:41:31;3.40;;;3.10;;
3299;SDS011;1662;49.310;8.134;2023-04-15T04:43:59;8.60;;;3.35;;
3299;SDS011;1662;49.310;8.134;2023-04-15T04:46:25;5.83;;;3.17;;
3299;SDS011;1662;49.310;8.134;2023-04-15T04:48:51;3.33;;;3.00;;
3299;SDS011;1662;49.310;8.134;2023-04-15T04:51:17;7.07;;;3.57;;
3299;SDS011;1662;49.310;8.134;2023-04-15T04:53:43;5.80;;;3.53;;
3299;SDS011;1662;49.310;8.134;2023-04-15T04:56:09;3.67;;;3.20;;
3299;SDS011;1662;49.310;8.134;2023-04-15T04:58:35;3.60;;;3.30;;
3299;SDS011;1662;49.310;8.134;2023-04-15T05:01:00;6.47;;;3.30;;
3299;SDS011;1662;49.310;8.134;2023-04-15T05:03:27;6.10;;;4.03;;
3299;SDS011;1662;49.310;8.134;2023-04-15T05:05:52;5.37;;;4.03;;
3299;SDS011;1662;49.310;8.134;2023-04-15T05:08:18;5.73;;;3.70;;
3299;SDS011;1662;49.310;8.134;2023-04-15T05:10:44;3.93;;;3.60;;
3299;SDS011;1662;49.310;8.134;2023-04-15T05:13:10;5.60;;;2.87;;
3299;SDS011;1662;49.310;8.134;2023-04-15T05:15:36;3.70;;;3.40;;
3299;SDS011;1662;49.310;8.134;2023-04-15T05:18:05;4.50;;;2.87;;
3299;SDS011;1662;49.310;8.134;2023-04-15T05:20:31;5.47;;;3.97;;
3299;SDS011;1662;49.310;8.134;2023-04-15T05:22:56;4.67;;;3.00;;
3299;SDS011;1662;49.310;8.134;2023-04-15T05:25:22;3.57;;;3.33;;
3299;SDS011;1662;49.310;8.134;2023-04-15T05:27:48;5.03;;;3.20;;
3299;SDS011;1662;49.310;8.134;2023-04-15T05:30:15;5.07;;;3.28;;
3299;SDS011;1662;49.310;8.134;2023-04-15T05:32:41;3.57;;;3.20;;
3299;SDS011;1662;49.310;8.134;2023-04-15T05:35:07;6.70;;;3.50;;
3299;SDS011;1662;49.310;8.134;2023-04-15T05:37:33;9.02;;;3.40;;
3299;SDS011;1662;49.310;8.134;2023-04-15T05:39:58;3.40;;;3.10;;
3299;SDS011;1662;49.310;8.134;2023-04-15T05:42:25;3.70;;;3.35;;
3299;SDS011;1662;49.310;8.134;2023-04-15T05:44:50;4.20;;;2.97;;
3299;SDS011;1662;49.310;8.134;2023-04-15T05:47:16;3.37;;;3.13;;
3299;SDS011;1662;49.310;8.134;2023-04-15T05:49:41;3.90;;;3.47;;
3299;SDS011;1662;49.310;8.134;2023-04-15T05:52:07;2.93;;;2.73;;
3299;SDS011;1662;49.310;8.134;2023-04-15T05:54:33;2.73;;;2.53;;
3299;SDS011;1662;49.310;8.134;2023-04-15T05:56:58;2.97;;;2.87;;
3299;SDS011;1662;49.310;8.134;2023-04-15T05:59:24;3.30;;;3.10;;
3299;SDS011;1662;49.310;8.134;2023-04-15T06:01:51;3.60;;;3.40;;
3299;SDS011;1662;49.310;8.134;2023-04-15T06:04:16;4.93;;;4.00;;
3299;SDS011;1662;49.310;8.134;2023-04-15T06:06:42;4.00;;;3.70;;
3299;SDS011;1662;49.310;8.134;2023-04-15T06:09:08;5.83;;;3.60;;
3299;SDS011;1662;49.310;8.134;2023-04-15T06:11:34;7.03;;;3.83;;
3299;SDS011;1662;49.310;8.134;2023-04-15T06:13:59;6.33;;;4.10;;
3299;SDS011;1662;49.310;8.134;2023-04-15T06:16:25;3.80;;;3.40;;
3299;SDS011;1662;49.310;8.134;2023-04-15T06:18:53;4.63;;;3.57;;
3299;SDS011;1662;49.310;8.134;2023-04-15T06:21:19;4.23;;;3.37;;
3299;SDS011;1662;49.310;8.134;2023-04-15T06:23:45;3.63;;;3.07;;
3299;SDS011;1662;49.310;8.134;2023-04-15T06:26:10;6.20;;;3.70;;
3299;SDS011;1662;49.310;8.134;2023-04-15T06:28:36;4.27;;;3.80;;
3299;SDS011;1662;49.310;8.134;2023-04-15T06:31:06;4.10;;;2.80;;
3299;SDS011;1662;49.310;8.134;2023-04-15T06:33:32;3.40;;;3.10;;
3299;SDS011;1662;49.310;8.134;2023-04-15T06:35:57;3.67;;;3.30;;
3299;SDS011;1662;49.310;8.134;2023-04-15T06:38:23;2.33;;;2.23;;
3299;SDS011;1662;49.310;8.134;2023-04-15T06:40:49;3.53;;;2.83;;
3299;SDS011;1662;49.310;8.134;2023-04-15T06:43:15;5.33;;;3.53;;
3299;SDS011;1662;49.310;8.134;2023-04-15T06:45:40;2.90;;;2.60;;
3299;SDS011;1662;49.310;8.134;2023-04-15T06:48:06;3.60;;;3.30;;
3299;SDS011;1662;49.310;8.134;2023-04-15T06:50:31;4.03;;;3.80;;
3299;SDS011;1662;49.310;8.134;2023-04-15T06:52:57;6.33;;;3.80;;
3299;SDS011;1662;49.310;8.134;2023-04-15T06:55:23;3.70;;;3.40;;
3299;SDS011;1662;49.310;8.134;2023-04-15T06:57:49;3.40;;;3.10;;
3299;SDS011;1662;49.310;8.134;2023-04-15T07:00:14;4.17;;;3.87;;
3299;SDS011;1662;49.310;8.134;2023-04-15T07:02:40;4.47;;;4.07;;
3299;SDS011;1662;49.310;8.134;2023-04-15T07:05:06;6.90;;;3.67;;
3299;SDS011;1662;49.310;8.134;2023-04-15T07:07:32;5.77;;;4.20;;
3299;SDS011;1662;49.310;8.134;2023-04-15T07:09:58;7.87;;;4.67;;
3299;SDS011;1662;49.310;8.134;2023-04-15T07:12:23;5.13;;;4.50;;
3299;SDS011;1662;49.310;8.134;2023-04-15T07:14:50;5.73;;;4.10;;
3299;SDS011;1662;49.310;8.134;2023-04-15T07:17:15;5.60;;;4.37;;
3299;SDS011;1662;49.310;8.134;2023-04-15T07:19:41;4.97;;;4.57;;
3299;SDS011;1662;49.310;8.134;2023-04-15T07:22:07;4.97;;;4.27;;
3299;SDS011;1662;49.310;8.134;2023-04-15T07:24:33;7.73;;;5.33;;
3299;SDS011;1662;49.310;8.134;2023-04-15T07:26:58;5.60;;;4.67;;
3299;SDS011;1662;49.310;8.134;2023-04-15T07:29:24;5.07;;;4.67;;
3299;SDS011;1662;49.310;8.134;2023-04-15T07:31:51;6.77;;;4.43;;
3299;SDS011;1662;49.310;8.134;2023-04-15T07:34:17;5.97;;;4.90;;
3299;SDS011;1662;49.310;8.134;2023-04-15T07:36:43;4.73;;;3.80;;
3299;SDS011;1662;49.310;8.134;2023-04-15T07:39:10;5.00;;;4.50;;
3299;SDS011;1662;49.310;8.134;2023-04-15T07:41:35;4.23;;;4.03;;
3299;SDS011;1662;49.310;8.134;2023-04-15T07:44:02;5.00;;;4.60;;
3299;SDS011;1662;49.310;8.134;2023-04-15T07:46:28;8.10;;;4.30;;
3299;SDS011;1662;49.310;8.134;2023-04-15T07:48:53;3.97;;;3.70;;
3299;SDS011;1662;49.310;8.134;2023-04-15T07:51:19;4.73;;;4.30;;
3299;SDS011;1662;49.310;8.134;2023-04-15T07:53:46;8.10;;;6.00;;
3299;SDS011;1662;49.310;8.134;2023-04-15T07:56:12;4.63;;;4.23;;
3299;SDS011;1662;49.310;8.134;2023-04-15T07:58:38;4.80;;;4.23;;
3299;SDS011;1662;49.310;8.134;2023-04-15T08:01:03;7.33;;;5.33;;
3299;SDS011;1662;49.310;8.134;2023-04-15T08:03:29;5.40;;;4.90;;
3299;SDS011;1662;49.310;8.134;2023-04-15T08:05:56;4.80;;;4.50;;
3299;SDS011;1662;49.310;8.134;2023-04-15T08:08:21;4.93;;;4.30;;
3299;SDS011;1662;49.310;8.134;2023-04-15T08:10:47;5.17;;;4.53;;
3299;SDS011;1662;49.310;8.134;2023-04-15T08:13:13;5.63;;;5.17;;
3299;SDS011;1662;49.310;8.134;2023-04-15T08:15:39;5.73;;;5.20;;
3299;SDS011;1662;49.310;8.134;2023-04-15T08:18:05;5.13;;;4.80;;
3299;SDS011;1662;49.310;8.134;2023-04-15T08:20:31;7.23;;;5.03;;
3299;SDS011;1662;49.310;8.134;2023-04-15T08:22:57;6.70;;;6.00;;
3299;SDS011;1662;49.310;8.134;2023-04-15T08:25:22;6.87;;;5.40;;
3299;SDS011;1662;49.310;8.134;2023-04-15T08:27:48;5.60;;;5.10;;
3299;SDS011;1662;49.310;8.134;2023-04-15T08:30:14;6.87;;;6.20;;
3299;SDS011;1662;49.310;8.134;2023-04-15T08:32:41;6.23;;;5.63;;
3299;SDS011;1662;49.310;8.134;2023-04-15T08:35:06;5.97;;;5.50;;
3299;SDS011;1662;49.310;8.134;2023-04-15T08:37:33;6.90;;;5.10;;
3299;SDS011;1662;49.310;8.134;2023-04-15T08:39:58;6.37;;;5.40;;
3299;SDS011;1662;49.310;8.134;2023-04-15T08:42:29;5.50;;;5.10;;
3299;SDS011;1662;49.310;8.134;2023-04-15T08:45:00;6.33;;;5.73;;
3299;SDS011;1662;49.310;8.134;2023-04-15T08:47:29;6.63;;;5.87;;
3299;SDS011;1662;49.310;8.134;2023-04-15T08:49:58;4.90;;;4.60;;
3299;SDS011;1662;49.310;8.134;2023-04-15T08:52:29;6.37;;;4.93;;
3299;SDS011;1662;49.310;8.134;2023-04-15T08:54:55;5.17;;;4.87;;
3299;SDS011;1662;49.310;8.134;2023-04-15T08:57:25;6.00;;;5.43;;
3299;SDS011;1662;49.310;8.134;2023-04-15T08:59:52;6.80;;;4.83;;
3299;SDS011;1662;49.310;8.134;2023-04-15T09:02:20;7.03;;;6.33;;
3299;SDS011;1662;49.310;8.134;2023-04-15T09:04:47;8.90;;;5.97;;
3299;SDS011;1662;49.310;8.134;2023-04-15T09:07:12;7.67;;;5.67;;
3299;SDS011;1662;49.310;8.134;2023-04-15T09:09:38;7.23;;;6.63;;
3299;SDS011;1662;49.310;8.134;2023-04-15T09:12:06;8.63;;;6.40;;
3299;SDS011;1662;49.310;8.134;2023-04-15T09:14:32;9.97;;;6.90;;
3299;SDS011;1662;49.310;8.134;2023-04-15T09:17:05;7.13;;;6.53;;
3299;SDS011;1662;49.310;8.134;2023-04-15T09:19:35;7.53;;;6.93;;
3299;SDS011;1662;49.310;8.134;2023-04-15T09:22:01;8.07;;;7.30;;
3299;SDS011;1662;49.310;8.134;2023-04-15T09:24:37;7.90;;;7.07;;
3299;SDS011;1662;49.310;8.134;2023-04-15T09:27:04;7.23;;;6.63;;
3299;SDS011;1662;49.310;8.134;2023-04-15T09:29:30;8.03;;;7.33;;
3299;SDS011;1662;49.310;8.134;2023-04-15T09:31:56;12.07;;;8.30;;
3299;SDS011;1662;49.310;8.134;2023-04-15T09:34:45;8.83;;;7.93;;
3299;SDS011;1662;49.310;8.134;2023-04-15T09:37:14;8.00;;;7.30;;
3299;SDS011;1662;49.310;8.134;2023-04-15T09:42:11;9.13;;;8.23;;
3299;SDS011;1662;49.310;8.134;2023-04-15T09:44:37;8.07;;;7.33;;
3299;SDS011;1662;49.310;8.134;2023-04-15T09:47:02;7.20;;;6.57;;
3299;SDS011;1662;49.310;8.134;2023-04-15T09:49:28;8.40;;;7.70;;
3299;SDS011;1662;49.310;8.134;2023-04-15T09:51:57;8.10;;;7.30;;
3299;SDS011;1662;49.310;8.134;2023-04-15T09:54:24;7.30;;;6.40;;
3299;SDS011;1662;49.310;8.134;2023-04-15T09:57:04;7.00;;;6.40;;
3299;SDS011;1662;49.310;8.134;2023-04-15T09:59:31;10.47;;;6.60;;
3299;SDS011;1662;49.310;8.134;2023-04-15T10:01:57;9.27;;;7.50;;
3299;SDS011;1662;49.310;8.134;2023-04-15T10:04:22;6.83;;;6.00;;
3299;SDS011;1662;49.310;8.134;2023-04-15T10:06:49;6.30;;;5.80;;
3299;SDS011;1662;49.310;8.134;2023-04-15T10:09:15;6.63;;;5.77;;
3299;SDS011;1662;49.310;8.134;2023-04-15T10:11:44;6.97;;;6.27;;
3299;SDS011;1662;49.310;8.134;2023-04-15T10:14:12;8.63;;;6.57;;
3299;SDS011;1662;49.310;8.134;2023-04-15T10:16:39;8.47;;;7.67;;
3299;SDS011;1662;49.310;8.134;2023-04-15T10:19:07;7.60;;;6.90;;
3299;SDS011;1662;49.310;8.134;2023-04-15T10:21:34;8.73;;;7.60;;
3299;SDS011;1662;49.310;8.134;2023-04-15T10:24:01;8.27;;;7.57;;
3299;SDS011;1662;49.310;8.134;2023-04-15T10:26:27;8.57;;;7.77;;
3299;SDS011;1662;49.310;8.134;2023-04-15T10:28:53;8.97;;;8.27;;
3299;SDS011;1662;49.310;8.134;2023-04-15T10:31:20;8.20;;;7.60;;
3299;SDS011;1662;49.310;8.134;2023-04-15T10:33:46;7.37;;;6.97;;
3299;SDS011;1662;49.310;8.134;2023-04-15T10:36:13;7.40;;;7.00;;
3299;SDS011;1662;49.310;8.134;2023-04-15T10:38:43;8.97;;;8.30;;
3299;SDS011;1662;49.310;8.134;2023-04-15T10:41:20;9.03;;;8.50;;
3299;SDS011;1662;49.310;8.134;2023-04-15T10:46:21;8.30;;;7.73;;
3299;SDS011;1662;49.310;8.134;2023-04-15T10:48:51;9.20;;;8.33;;
3299;SDS011;1662;49.310;8.134;2023-04-15T10:51:27;7.60;;;7.10;;
3299;SDS011;1662;49.310;8.134;2023-04-15T10:54:00;7.53;;;6.60;;
3299;SDS011;1662;49.310;8.134;2023-04-15T10:56:29;6.77;;;6.37;;
3299;SDS011;1662;49.310;8.134;2023-04-15T10:58:57;7.80;;;7.20;;
3299;SDS011;1662;49.310;8.134;2023-04-15T11:01:48;7.60;;;7.20;;
3299;SDS011;1662;49.310;8.134;2023-04-15T11:07:36;8.33;;;7.93;;
3299;SDS011;1662;49.310;8.134;2023-04-15T11:10:03;8.60;;;8.13;;
3299;SDS011;1662;49.310;8.134;2023-04-15T11:12:49;8.83;;;8.10;;
3299;SDS011;1662;49.310;8.134;2023-04-15T11:15:59;7.90;;;7.50;;
3299;SDS011;1662;49.310;8.134;2023-04-15T11:20:38;5.27;;;5.00;;
3299;SDS011;1662;49.310;8.134;2023-04-15T11:23:05;6.83;;;6.13;;
3299;SDS011;1662;49.310;8.134;2023-04-15T11:25:32;8.73;;;8.13;;
3299;SDS011;1662;49.310;8.134;2023-04-15T11:28:00;10.50;;;9.73;;
3299;SDS011;1662;49.310;8.134;2023-04-15T11:30:30;11.70;;;11.00;;
3299;SDS011;1662;49.310;8.134;2023-04-15T11:32:59;14.13;;;13.00;;
3299;SDS011;1662;49.310;8.134;2023-04-15T11:35:26;13.67;;;12.77;;
3299;SDS011;1662;49.310;8.134;2023-04-15T11:37:55;13.40;;;12.70;;
3299;SDS011;1662;49.310;8.134;2023-04-15T11:40:24;19.90;;;18.77;;
3299;SDS011;1662;49.310;8.134;2023-04-15T11:43:07;21.93;;;20.50;;
3299;SDS011;1662;49.310;8.134;2023-04-15T11:45:34;9.60;;;9.10;;
3299;SDS011;1662;49.310;8.134;2023-04-15T11:48:10;17.43;;;16.43;;
3299;SDS011;1662;49.310;8.134;2023-04-15T11:50:37;12.93;;;11.93;;
3299;SDS011;1662;49.310;8.134;2023-04-15T11:53:05;10.63;;;10.00;;
3299;SDS011;1662;49.310;8.134;2023-04-15T11:55:42;7.10;;;6.60;;
3299;SDS011;1662;49.310;8.134;2023-04-15T11:58:20;11.77;;;11.17;;
3299;SDS011;1662;49.310;8.134;2023-04-15T12:00:51;15.63;;;14.63;;
3299;SDS011;1662;49.310;8.134;2023-04-15T12:03:20;11.70;;;11.27;;
3299;SDS011;1662;49.310;8.134;2023-04-15T12:16:38;10.47;;;10.00;;
3299;SDS011;1662;49.310;8.134;2023-04-15T12:19:15;14.30;;;13.70;;
3299;SDS011;1662;49.310;8.134;2023-04-15T12:21:43;21.20;;;20.03;;
3299;SDS011;1662;49.310;8.134;2023-04-15T12:24:12;18.00;;;17.30;;
3299;SDS011;1662;49.310;8.134;2023-04-15T12:26:48;10.87;;;10.00;;
3299;SDS011;1662;49.310;8.134;2023-04-15T12:29:18;14.53;;;13.60;;
3299;SDS011;1662;49.310;8.134;2023-04-15T12:31:45;19.40;;;18.50;;
3299;SDS011;1662;49.310;8.134;2023-04-15T12:34:16;7.00;;;6.23;;
3299;SDS011;1662;49.310;8.134;2023-04-15T12:36:42;6.40;;;5.93;;
3299;SDS011;1662;49.310;8.134;2023-04-15T12:39:08;6.70;;;6.40;;
3299;SDS011;1662;49.310;8.134;2023-04-15T12:41:34;6.10;;;5.90;;
3299;SDS011;1662;49.310;8.134;2023-04-15T12:43:59;9.33;;;7.70;;
3299;SDS011;1662;49.310;8.134;2023-04-15T12:46:25;7.17;;;6.83;;
3299;SDS011;1662;49.310;8.134;2023-04-15T12:48:51;8.40;;;7.80;;
3299;SDS011;1662;49.310;8.134;2023-04-15T12:51:21;8.77;;;7.87;;
3299;SDS011;1662;49.310;8.134;2023-04-15T12:53:46;9.00;;;8.10;;
3299;SDS011;1662;49.310;8.134;2023-04-15T12:56:13;7.27;;;6.77;;
3299;SDS011;1662;49.310;8.134;2023-04-15T12:58:39;10.23;;;8.90;;
3299;SDS011;1662;49.310;8.134;2023-04-15T13:01:05;9.13;;;8.40;;
3299;SDS011;1662;49.310;8.134;2023-04-15T13:03:30;9.00;;;8.33;;
3299;SDS011;1662;49.310;8.134;2023-04-15T13:05:56;9.50;;;8.47;;
3299;SDS011;1662;49.310;8.134;2023-04-15T13:08:22;9.17;;;8.37;;
3299;SDS011;1662;49.310;8.134;2023-04-15T13:10:47;7.70;;;7.23;;
3299;SDS011;1662;49.310;8.134;2023-04-15T13:13:13;8.83;;;8.00;;
3299;SDS011;1662;49.310;8.134;2023-04-15T13:15:39;7.00;;;6.50;;
3299;SDS011;1662;49.310;8.134;2023-04-15T13:18:09;6.13;;;5.90;;
3299;SDS011;1662;49.310;8.134;2023-04-15T13:20:37;6.37;;;5.87;;
3299;SDS011;1662;49.310;8.134;2023-04-15T13:23:03;6.90;;;6.40;;
3299;SDS011;1662;49.310;8.134;2023-04-15T13:25:29;7.17;;;6.53;;
3299;SDS011;1662;49.310;8.134;2023-04-15T13:27:54;5.97;;;5.67;;
3299;SDS011;1662;49.310;8.134;2023-04-15T13:30:21;6.27;;;5.87;;
3299;SDS011;1662;49.310;8.134;2023-04-15T13:32:48;8.37;;;5.83;;
3299;SDS011;1662;49.310;8.134;2023-04-15T13:35:14;6.80;;;6.40;;
3299;SDS011;1662;49.310;8.134;2023-04-15T13:37:39;6.53;;;5.93;;
3299;SDS011;1662;49.310;8.134;2023-04-15T13:40:08;5.87;;;5.57;;
3299;SDS011;1662;49.310;8.134;2023-04-15T13:42:34;5.83;;;5.33;;
3299;SDS011;1662;49.310;8.134;2023-04-15T13:45:00;5.90;;;5.50;;
3299;SDS011;1662;49.310;8.134;2023-04-15T13:47:26;5.50;;;5.20;;
3299;SDS011;1662;49.310;8.134;2023-04-15T13:49:51;5.83;;;5.40;;
3299;SDS011;1662;49.310;8.134;2023-04-15T13:52:18;5.47;;;5.27;;
3299;SDS011;1662;49.310;8.134;2023-04-15T13:54:43;5.40;;;5.20;;
3299;SDS011;1662;49.310;8.134;2023-04-15T13:57:09;5.23;;;4.90;;
3299;SDS011;1662;49.310;8.134;2023-04-15T13:59:35;5.00;;;4.70;;
3299;SDS011;1662;49.310;8.134;2023-04-15T14:02:00;5.03;;;4.93;;
3299;SDS011;1662;49.310;8.134;2023-04-15T14:04:26;6.10;;;5.60;;
3299;SDS011;1662;49.310;8.134;2023-04-15T14:06:52;5.43;;;5.23;;
3299;SDS011;1662;49.310;8.134;2023-04-15T14:09:17;5.03;;;4.83;;
3299;SDS011;1662;49.310;8.134;2023-04-15T14:11:43;5.13;;;4.93;;
3299;SDS011;1662;49.310;8.134;2023-04-15T14:14:08;4.40;;;4.30;;
3299;SDS011;1662;49.310;8.134;2023-04-15T14:16:36;5.40;;;5.00;;
3299;SDS011;1662;49.310;8.134;2023-04-15T14:19:02;5.00;;;4.80;;
3299;SDS011;1662;49.310;8.134;2023-04-15T14:21:27;5.13;;;4.83;;
3299;SDS011;1662;49.310;8.134;2023-04-15T14:23:55;4.80;;;4.60;;
3299;SDS011;1662;49.310;8.134;2023-04-15T14:26:21;4.80;;;4.60;;
3299;SDS011;1662;49.310;8.134;2023-04-15T14:28:47;5.10;;;4.80;;
3299;SDS011;1662;49.310;8.134;2023-04-15T14:31:13;4.40;;;4.27;;
3299;SDS011;1662;49.310;8.134;2023-04-15T14:33:38;4.60;;;4.30;;
3299;SDS011;1662;49.310;8.134;2023-04-15T14:36:05;4.70;;;4.43;;
3299;SDS011;1662;49.310;8.134;2023-04-15T14:38:32;4.40;;;4.30;;
3299;SDS011;1662;49.310;8.134;2023-04-15T14:41:02;4.70;;;4.40;;
3299;SDS011;1662;49.310;8.134;2023-04-15T14:43:32;4.30;;;4.20;;
3299;SDS011;1662;49.310;8.134;2023-04-15T14:45:58;5.00;;;4.90;;
3299;SDS011;1662;49.310;8.134;2023-04-15T14:48:24;5.20;;;5.10;;
3299;SDS011;1662;49.310;8.134;2023-04-15T14:50:50;4.93;;;4.73;;
3299;SDS011;1662;49.310;8.134;2023-04-15T14:53:16;5.37;;;5.17;;
3299;SDS011;1662;49.310;8.134;2023-04-15T14:55:42;4.30;;;4.20;;
3299;SDS011;1662;49.310;8.134;2023-04-15T14:58:08;4.17;;;4.07;;
3299;SDS011;1662;49.310;8.134;2023-04-15T15:00:33;4.40;;;4.30;;
3299;SDS011;1662;49.310;8.134;2023-04-15T15:03:00;4.83;;;4.60;;
3299;SDS011;1662;49.310;8.134;2023-04-15T15:05:26;4.60;;;4.50;;
3299;SDS011;1662;49.310;8.134;2023-04-15T15:07:51;4.30;;;4.20;;
3299;SDS011;1662;49.310;8.134;2023-04-15T15:10:17;4.63;;;4.43;;
3299;SDS011;1662;49.310;8.134;2023-04-15T15:12:43;4.53;;;4.43;;
3299;SDS011;1662;49.310;8.134;2023-04-15T15:15:08;4.30;;;4.20;;
3299;SDS011;1662;49.310;8.134;2023-04-15T15:17:34;4.87;;;4.77;;
3299;SDS011;1662;49.310;8.134;2023-04-15T15:20:00;4.60;;;4.50;;
3299;SDS011;1662;49.310;8.134;2023-04-15T15:22:27;5.07;;;4.97;;
3299;SDS011;1662;49.310;8.134;2023-04-15T15:24:53;4.90;;;4.70;;
3299;SDS011;1662;49.310;8.134;2023-04-15T15:27:18;4.90;;;4.80;;
3299;SDS011;1662;49.310;8.134;2023-04-15T15:29:44;4.80;;;4.70;;
3299;SDS011;1662;49.310;8.134;2023-04-15T15:32:10;5.20;;;5.00;;
3299;SDS011;1662;49.310;8.134;2023-04-15T15:34:35;4.27;;;4.17;;